Tjuhtet, Russia
Current Conditions -  °F | °C
As of 8:30 AM on Saturday 22 Nov 2014 (Local Time) from UNKL Reporting Station
Blowing Snow Blowing Snow  
Wind Chill:   Ceiling: 2700
Heat Index: 21°   Visibility: 1.1mi
Dew Point: 16°   Wind: 16mph
Humidity: 80%   Direction: 220°SW
Pressure: 29.62"   Gusts: 31mph
Location:  56.53°N, 89.31°E
Report Text: UNKL 220130Z 22007G14MPS 1900 R29/P1500D SHSN BLSN BKN027CBOVC083 M06/M09 Q1003 TEMPO 26012G17MPS 0500 +SHSN BLSN RMK QFE72729////50
Loading
Personal Weather Stations






























Interactive Weather Map New forecast layout! Learn more

10-Day Weather Forecast

Advertisements
Track Severe Weather on mobile